createdAt,value
2023-12-09T00:00:26.250Z,29.45
2023-12-09T00:01:26.289Z,29.44
2023-12-09T00:02:26.633Z,29.44
2023-12-09T00:03:26.372Z,29.46
2023-12-09T00:04:26.534Z,29.43
2023-12-09T00:05:26.396Z,29.46
2023-12-09T00:06:26.459Z,29.46
2023-12-09T00:07:26.467Z,29.46
2023-12-09T00:08:26.505Z,29.48
2023-12-09T00:09:26.590Z,29.46
2023-12-09T00:10:26.576Z,29.49
2023-12-09T00:11:26.602Z,29.43
2023-12-09T00:12:27.033Z,29.43
2023-12-09T00:13:26.691Z,29.46
2023-12-09T00:14:26.743Z,29.49
2023-12-09T00:15:26.789Z,29.52
2023-12-09T00:16:26.773Z,29.43
2023-12-09T00:17:26.800Z,29.45
2023-12-09T00:18:26.919Z,29.49
2023-12-09T00:19:26.962Z,29.50
2023-12-09T00:20:26.924Z,29.53
2023-12-09T00:21:26.966Z,29.45
2023-12-09T00:22:27.264Z,29.44
2023-12-09T00:23:26.997Z,29.50
2023-12-09T00:24:27.054Z,29.46
2023-12-09T00:25:27.064Z,29.45
2023-12-09T00:26:27.097Z,29.42
2023-12-09T00:27:27.215Z,29.48
2023-12-09T00:28:27.175Z,29.44
2023-12-09T00:29:27.202Z,29.48
2023-12-09T00:30:27.270Z,29.50
2023-12-09T00:31:27.281Z,29.48
2023-12-09T00:32:27.634Z,29.49
2023-12-09T00:33:27.449Z,29.55
2023-12-09T00:34:27.457Z,29.50
2023-12-09T00:35:27.409Z,29.44
2023-12-09T00:36:27.458Z,29.46
2023-12-09T00:37:27.482Z,29.52
2023-12-09T00:38:27.588Z,29.49
2023-12-09T00:39:27.592Z,29.51
2023-12-09T00:40:27.563Z,29.45
2023-12-09T00:41:27.619Z,29.46
2023-12-09T00:42:27.964Z,29.52
2023-12-09T00:43:27.672Z,29.46
2023-12-09T00:44:27.715Z,29.49
2023-12-09T00:45:27.808Z,29.49
2023-12-09T00:46:27.811Z,29.48
2023-12-09T00:47:27.829Z,29.49
2023-12-09T00:48:28.005Z,29.44
2023-12-09T00:49:27.980Z,29.48
2023-12-09T00:50:27.922Z,29.51
2023-12-09T00:51:28.020Z,29.45
2023-12-09T00:52:28.208Z,29.48
2023-12-09T00:53:28.037Z,29.50
2023-12-09T00:54:28.115Z,29.49
2023-12-09T00:55:28.129Z,29.43
2023-12-09T00:56:34.306Z,29.45
2023-12-09T00:57:29.267Z,29.46
2023-12-09T00:58:28.179Z,29.48
2023-12-09T00:59:28.189Z,29.49
2023-12-09T01:00:28.203Z,29.48
2023-12-09T01:01:28.209Z,29.39
2023-12-09T01:02:28.605Z,29.38
2023-12-09T01:03:28.288Z,29.48
2023-12-09T01:04:28.285Z,29.48
2023-12-09T01:05:28.186Z,29.48
2023-12-09T01:06:28.241Z,29.45
2023-12-09T01:07:28.191Z,29.41
2023-12-09T01:08:28.184Z,29.42
2023-12-09T01:09:28.245Z,29.46
2023-12-09T01:10:28.201Z,29.50
2023-12-09T01:11:28.206Z,29.48
2023-12-09T01:12:28.494Z,29.45
2023-12-09T01:13:28.277Z,29.45
2023-12-09T01:14:28.322Z,29.46
2023-12-09T01:15:28.381Z,29.46
2023-12-09T01:16:28.393Z,29.43
2023-12-09T01:17:28.424Z,29.48
2023-12-09T01:18:28.510Z,29.49
2023-12-09T01:19:28.537Z,29.45
2023-12-09T01:20:28.552Z,29.48
2023-12-09T01:21:28.607Z,29.46
2023-12-09T01:22:28.975Z,29.41
2023-12-09T01:23:28.639Z,29.42
2023-12-09T01:24:28.742Z,29.48
2023-12-09T01:25:28.730Z,29.42
2023-12-09T01:26:28.779Z,29.45
2023-12-09T01:27:28.831Z,29.46
2023-12-09T01:28:28.842Z,29.46
2023-12-09T01:29:28.881Z,29.42
2023-12-09T01:30:29.030Z,29.43
2023-12-09T01:31:28.962Z,29.46
2023-12-09T01:32:29.202Z,29.46
2023-12-09T01:33:29.182Z,29.49
2023-12-09T01:34:29.130Z,29.42
2023-12-09T01:35:29.120Z,29.45
2023-12-09T01:36:29.204Z,29.45
2023-12-09T01:37:29.207Z,29.39
2023-12-09T01:38:29.252Z,29.43
2023-12-09T01:39:29.344Z,29.43
2023-12-09T01:40:29.328Z,29.36
2023-12-09T01:41:29.371Z,29.42
2023-12-09T01:42:29.817Z,29.45
2023-12-09T01:43:29.453Z,29.43
2023-12-09T01:44:29.500Z,29.46
2023-12-09T01:45:29.601Z,29.42
2023-12-09T01:46:29.565Z,29.42
2023-12-09T01:47:29.617Z,29.46
2023-12-09T01:48:29.824Z,29.43
2023-12-09T01:49:29.817Z,29.42
2023-12-09T01:50:29.841Z,29.39
2023-12-09T01:51:29.856Z,29.45
2023-12-09T01:52:29.857Z,29.42
2023-12-09T01:53:29.842Z,29.42
2023-12-09T01:54:29.920Z,29.43
2023-12-09T01:55:29.933Z,29.48
2023-12-09T01:56:29.970Z,29.43
2023-12-09T01:57:30.064Z,29.37
2023-12-09T01:58:30.047Z,29.39
2023-12-09T01:59:30.097Z,29.41
2023-12-09T02:00:30.200Z,29.45
2023-12-09T02:01:30.200Z,29.40
2023-12-09T02:02:30.524Z,29.42
2023-12-09T02:03:30.306Z,29.42
2023-12-09T02:04:30.286Z,29.43
2023-12-09T02:05:30.329Z,29.43
2023-12-09T02:06:30.380Z,29.42
2023-12-09T02:07:30.416Z,29.39
2023-12-09T02:08:30.446Z,29.42
2023-12-09T02:09:30.572Z,29.42
2023-12-09T02:10:30.529Z,29.42
2023-12-09T02:11:30.568Z,29.38
2023-12-09T02:12:30.773Z,29.39
2023-12-09T02:13:30.644Z,29.37
2023-12-09T02:14:30.776Z,29.37
2023-12-09T02:15:30.785Z,29.40
2023-12-09T02:16:30.767Z,29.39
2023-12-09T02:17:30.827Z,29.43
2023-12-09T02:18:30.950Z,29.39
2023-12-09T02:19:30.897Z,29.39
2023-12-09T02:20:30.928Z,29.40
2023-12-09T02:21:31.008Z,29.41
2023-12-09T02:22:31.009Z,29.39
2023-12-09T02:23:31.069Z,29.38
2023-12-09T02:24:31.141Z,29.39
2023-12-09T02:25:31.152Z,29.42
2023-12-09T02:26:31.200Z,29.38
2023-12-09T02:27:31.294Z,29.35
2023-12-09T02:28:31.265Z,29.37
2023-12-09T02:29:31.310Z,29.35
2023-12-09T02:30:31.399Z,29.39
2023-12-09T02:31:31.412Z,29.35
2023-12-09T02:32:31.484Z,29.36
2023-12-09T02:33:31.642Z,29.37
2023-12-09T02:34:31.743Z,29.39
2023-12-09T02:35:31.608Z,29.39
2023-12-09T02:36:31.712Z,29.35
2023-12-09T02:37:31.698Z,29.40
2023-12-09T02:38:31.750Z,29.36
2023-12-09T02:39:31.819Z,29.37
2023-12-09T02:40:31.845Z,29.33
2023-12-09T02:41:31.890Z,29.36
2023-12-09T02:42:31.971Z,29.37
2023-12-09T02:43:31.968Z,29.36
2023-12-09T02:44:32.013Z,29.37
2023-12-09T02:45:32.159Z,29.43
2023-12-09T02:46:32.101Z,29.36
2023-12-09T02:47:32.162Z,29.37
2023-12-09T02:48:32.289Z,29.39
2023-12-09T02:49:32.347Z,29.39
2023-12-09T02:50:32.275Z,29.37
2023-12-09T02:51:32.471Z,29.37
2023-12-09T02:52:33.032Z,29.42
2023-12-09T02:53:32.404Z,29.36
2023-12-09T02:54:32.525Z,29.39
2023-12-09T02:55:32.495Z,29.40
2023-12-09T02:56:32.539Z,29.37
2023-12-09T02:57:32.614Z,29.33
2023-12-09T02:58:32.668Z,29.29
2023-12-09T02:59:32.689Z,29.32
2023-12-09T03:00:32.764Z,29.36
2023-12-09T03:01:32.830Z,29.39
2023-12-09T03:02:32.836Z,29.37
2023-12-09T03:03:32.943Z,29.35
2023-12-09T03:04:32.938Z,29.35
2023-12-09T03:05:33.006Z,29.39
2023-12-09T03:06:33.098Z,29.36
2023-12-09T03:07:33.092Z,29.37
2023-12-09T03:08:33.152Z,29.33
2023-12-09T03:09:33.210Z,29.32
2023-12-09T03:10:33.244Z,29.36
2023-12-09T03:11:33.303Z,29.33
2023-12-09T03:12:33.420Z,29.31
2023-12-09T03:13:33.405Z,29.33
2023-12-09T03:14:33.479Z,29.29
2023-12-09T03:15:33.637Z,29.32
2023-12-09T03:16:33.528Z,29.29
2023-12-09T03:17:33.603Z,29.33
2023-12-09T03:18:33.738Z,29.36
2023-12-09T03:19:33.798Z,29.35
2023-12-09T03:20:33.714Z,29.32
2023-12-09T03:21:33.778Z,29.32
2023-12-09T03:22:33.804Z,29.32
2023-12-09T03:23:33.856Z,29.32
2023-12-09T03:24:33.969Z,29.33
2023-12-09T03:25:33.963Z,29.32
2023-12-09T03:26:34.000Z,29.32
2023-12-09T03:27:34.143Z,29.33
2023-12-09T03:28:34.103Z,29.34
2023-12-09T03:29:34.134Z,29.33
2023-12-09T03:30:34.243Z,29.32
2023-12-09T03:31:34.218Z,29.33
2023-12-09T03:32:34.300Z,29.34
2023-12-09T03:33:34.475Z,29.30
2023-12-09T03:34:34.434Z,29.32
2023-12-09T03:35:34.401Z,29.28
2023-12-09T03:36:34.534Z,29.30
2023-12-09T03:37:34.501Z,29.35
2023-12-09T03:38:34.539Z,29.33
2023-12-09T03:39:34.657Z,29.33
2023-12-09T03:40:34.649Z,29.32
2023-12-09T03:41:34.698Z,29.30
2023-12-09T03:42:34.775Z,29.35
2023-12-09T03:43:34.862Z,29.32
2023-12-09T03:44:34.839Z,29.31
2023-12-09T03:45:34.948Z,29.31
2023-12-09T03:46:34.943Z,29.32
2023-12-09T03:47:35.026Z,29.29
2023-12-09T03:48:35.174Z,29.32
2023-12-09T03:49:35.118Z,29.32
2023-12-09T03:50:35.135Z,29.29
2023-12-09T03:51:35.257Z,29.25
2023-12-09T03:52:35.243Z,29.32
2023-12-09T03:53:35.257Z,29.33
2023-12-09T03:54:35.318Z,29.22
2023-12-09T03:55:35.360Z,29.32
2023-12-09T03:56:35.414Z,29.29
2023-12-09T03:57:35.612Z,29.33
2023-12-09T03:58:35.500Z,29.28
2023-12-09T03:59:35.549Z,29.35
2023-12-09T04:00:35.654Z,29.30
2023-12-09T04:01:35.676Z,29.30
2023-12-09T04:02:35.686Z,29.28
2023-12-09T04:03:35.787Z,29.32
2023-12-09T04:04:35.802Z,29.25
2023-12-09T04:05:35.872Z,29.29
2023-12-09T04:06:35.936Z,29.25
2023-12-09T04:07:35.918Z,29.26
2023-12-09T04:08:35.961Z,29.26
2023-12-09T04:09:36.055Z,29.29
2023-12-09T04:10:36.034Z,29.32
2023-12-09T04:11:36.073Z,29.29
2023-12-09T04:12:36.150Z,29.32
2023-12-09T04:13:36.164Z,29.28
2023-12-09T04:14:36.210Z,29.28
2023-12-09T04:15:36.337Z,29.32
2023-12-09T04:16:43.604Z,29.26
2023-12-09T04:17:43.648Z,29.33
2023-12-09T04:18:43.683Z,29.32
2023-12-09T04:19:43.730Z,29.30
2023-12-09T04:20:43.628Z,29.25
2023-12-09T04:21:43.612Z,29.26
2023-12-09T04:22:43.614Z,29.28
2023-12-09T04:23:43.614Z,29.28
2023-12-09T04:24:43.613Z,29.26
2023-12-09T04:25:43.619Z,29.30
2023-12-09T04:26:43.618Z,29.28
2023-12-09T04:27:43.650Z,29.25
2023-12-09T04:28:43.611Z,29.28
2023-12-09T04:29:43.614Z,29.26
2023-12-09T04:30:43.621Z,29.28
2023-12-09T04:31:50.784Z,29.33
2023-12-09T04:32:50.811Z,29.29
2023-12-09T04:33:50.838Z,29.30
2023-12-09T04:34:50.819Z,29.30
2023-12-09T04:35:50.792Z,29.26
2023-12-09T04:36:50.777Z,29.28
2023-12-09T04:37:50.779Z,29.28
2023-12-09T04:38:50.778Z,29.19
2023-12-09T04:39:50.785Z,29.28
2023-12-09T04:40:50.796Z,29.28
2023-12-09T04:41:50.778Z,29.25
2023-12-09T04:42:50.782Z,29.26
2023-12-09T04:43:50.778Z,29.25
2023-12-09T04:44:50.797Z,29.23
2023-12-09T04:45:50.790Z,29.29
2023-12-09T04:46:50.793Z,29.26
2023-12-09T04:47:50.912Z,29.21
2023-12-09T04:48:50.915Z,29.25
2023-12-09T04:49:50.941Z,29.28
2023-12-09T04:50:50.794Z,29.22
2023-12-09T04:51:50.791Z,29.23
2023-12-09T04:52:50.796Z,29.23
2023-12-09T04:53:50.803Z,29.32
2023-12-09T04:54:50.809Z,29.22
2023-12-09T04:55:50.804Z,29.21
2023-12-09T04:56:50.807Z,29.23
2023-12-09T04:57:50.807Z,29.25
2023-12-09T04:58:50.832Z,29.23
2023-12-09T04:59:50.822Z,29.21
2023-12-09T05:00:50.837Z,29.26
2023-12-09T05:01:50.820Z,29.28
2023-12-09T05:02:50.824Z,29.23
2023-12-09T05:03:50.896Z,29.25
2023-12-09T05:04:50.824Z,29.22
2023-12-09T05:05:50.854Z,29.21
2023-12-09T05:06:50.888Z,29.25
2023-12-09T05:07:50.850Z,29.19
2023-12-09T05:08:50.838Z,29.23
2023-12-09T05:09:50.843Z,29.19
2023-12-09T05:10:50.841Z,29.25
2023-12-09T05:11:50.824Z,29.24
2023-12-09T05:12:50.838Z,29.21
2023-12-09T05:13:50.852Z,29.19
2023-12-09T05:14:50.830Z,29.16
2023-12-09T05:15:50.861Z,29.16
2023-12-09T05:16:50.884Z,29.22
2023-12-09T05:17:50.916Z,29.22
2023-12-09T05:18:51.037Z,29.23
2023-12-09T05:19:50.857Z,29.22
2023-12-09T05:20:50.837Z,29.23
2023-12-09T05:21:50.909Z,29.18
2023-12-09T05:22:50.848Z,29.16
2023-12-09T05:23:50.863Z,29.19
2023-12-09T05:24:50.929Z,29.18
2023-12-09T05:25:51.027Z,29.19
2023-12-09T05:26:51.007Z,29.16
2023-12-09T05:27:51.075Z,29.18
2023-12-09T05:28:51.130Z,29.26
2023-12-09T05:29:51.175Z,29.16
2023-12-09T05:30:51.238Z,29.19
2023-12-09T05:31:51.275Z,29.19
2023-12-09T05:32:51.407Z,29.15
2023-12-09T05:33:51.540Z,29.19
2023-12-09T05:34:51.454Z,29.15
2023-12-09T05:35:51.468Z,29.19
2023-12-09T05:36:51.526Z,29.15
2023-12-09T05:37:51.652Z,29.19
2023-12-09T05:38:51.638Z,29.21
2023-12-09T05:39:51.672Z,29.15
2023-12-09T05:40:51.750Z,29.13
2023-12-09T05:41:51.768Z,29.15
2023-12-09T05:42:51.862Z,29.15
2023-12-09T05:43:51.937Z,29.18
2023-12-09T05:44:51.945Z,29.16
2023-12-09T05:45:51.998Z,29.18
2023-12-09T05:46:52.912Z,29.15
2023-12-09T05:47:52.193Z,29.14
2023-12-09T05:48:52.419Z,29.16
2023-12-09T05:49:52.249Z,29.19
2023-12-09T05:50:52.265Z,29.16
2023-12-09T05:51:52.330Z,29.11
2023-12-09T05:52:52.403Z,29.19
2023-12-09T05:53:52.422Z,29.16
2023-12-09T05:54:52.468Z,29.12
2023-12-09T05:55:52.524Z,29.19
2023-12-09T05:56:52.583Z,29.14
2023-12-09T05:57:52.617Z,29.14
2023-12-09T05:58:52.676Z,29.12
2023-12-09T05:59:52.718Z,29.14
2023-12-09T06:00:52.983Z,29.11
2023-12-09T06:01:52.812Z,29.10
2023-12-09T06:02:52.874Z,29.14
2023-12-09T06:03:52.917Z,29.12
2023-12-09T06:04:52.988Z,29.11
2023-12-09T06:05:53.039Z,29.12
2023-12-09T06:06:53.112Z,29.10
2023-12-09T06:07:53.128Z,29.14
2023-12-09T06:08:53.272Z,29.10
2023-12-09T06:09:53.233Z,29.16
2023-12-09T06:10:53.294Z,29.14
2023-12-09T06:11:53.330Z,29.12
2023-12-09T06:12:53.386Z,29.15
2023-12-09T06:13:53.431Z,29.07
2023-12-09T06:14:53.513Z,29.12
2023-12-09T06:15:53.525Z,29.18
2023-12-09T06:16:53.574Z,29.14
2023-12-09T06:17:53.748Z,29.11
2023-12-09T06:18:53.708Z,29.10
2023-12-09T06:19:53.737Z,29.13
2023-12-09T06:20:53.831Z,29.06
2023-12-09T06:21:53.810Z,29.16
2023-12-09T06:22:53.874Z,29.10
2023-12-09T06:23:53.993Z,29.12
2023-12-09T06:24:53.962Z,29.08
2023-12-09T06:25:53.997Z,29.08
2023-12-09T06:26:54.080Z,29.14
2023-12-09T06:27:54.121Z,29.07
2023-12-09T06:28:54.152Z,29.10
2023-12-09T06:29:54.227Z,29.11
2023-12-09T06:30:56.301Z,29.10
2023-12-09T06:31:54.248Z,29.12
2023-12-09T06:32:54.419Z,29.12
2023-12-09T06:33:54.399Z,29.11
2023-12-09T06:34:54.256Z,29.13
2023-12-09T06:35:54.271Z,29.06
2023-12-09T06:36:54.259Z,29.08
2023-12-09T06:37:54.251Z,29.10
2023-12-09T06:38:54.319Z,29.10
2023-12-09T06:39:54.249Z,29.08
2023-12-09T06:40:54.248Z,29.09
2023-12-09T06:41:54.283Z,29.02
2023-12-09T06:42:54.264Z,29.11
2023-12-09T06:43:54.268Z,29.05
2023-12-09T06:44:54.278Z,29.12
2023-12-09T06:45:54.250Z,29.12
2023-12-09T06:46:54.262Z,29.07
2023-12-09T06:47:54.339Z,29.12
2023-12-09T06:48:54.415Z,29.10
2023-12-09T06:49:54.322Z,29.10
2023-12-09T06:50:54.276Z,28.98
2023-12-09T06:51:54.276Z,29.10
2023-12-09T06:52:54.260Z,29.05
2023-12-09T06:53:54.357Z,29.06
2023-12-09T06:54:54.267Z,29.10
2023-12-09T06:55:54.275Z,29.06
2023-12-09T06:56:54.378Z,29.04
2023-12-09T06:57:54.270Z,29.08
2023-12-09T06:58:54.266Z,29.05
2023-12-09T06:59:54.358Z,29.05
2023-12-09T07:00:54.368Z,29.01
2023-12-09T07:01:54.266Z,29.04
2023-12-09T07:02:59.378Z,29.04
2023-12-09T07:03:55.382Z,29.06
2023-12-09T07:04:54.299Z,29.05
2023-12-09T07:05:54.311Z,29.04
2023-12-09T07:06:54.325Z,29.04
2023-12-09T07:07:54.280Z,29.05
2023-12-09T07:08:54.412Z,29.08
2023-12-09T07:09:54.280Z,29.05
2023-12-09T07:10:54.289Z,29.00
2023-12-09T07:12:01.803Z,29.01
2023-12-09T07:12:55.316Z,29.02
2023-12-09T07:13:54.299Z,29.06
2023-12-09T07:14:54.561Z,29.04
2023-12-09T07:15:54.302Z,29.04
2023-12-09T07:16:54.350Z,29.03
2023-12-09T07:17:54.426Z,29.05
2023-12-09T07:18:54.372Z,28.97
2023-12-09T07:19:54.423Z,29.05
2023-12-09T07:20:54.426Z,29.04
2023-12-09T07:21:54.305Z,28.99
2023-12-09T07:22:54.301Z,28.97
2023-12-09T07:23:54.407Z,29.03
2023-12-09T07:24:54.402Z,28.96
2023-12-09T07:25:54.450Z,29.02
2023-12-09T07:26:54.615Z,28.99
2023-12-09T07:27:54.556Z,28.94
2023-12-09T07:28:54.591Z,28.96
2023-12-09T07:29:54.701Z,29.00
2023-12-09T07:30:55.377Z,29.00
2023-12-09T07:31:54.787Z,28.97
2023-12-09T07:32:54.931Z,28.99
2023-12-09T07:33:54.932Z,28.95
2023-12-09T07:34:57.307Z,28.99
2023-12-09T07:35:54.888Z,28.96
2023-12-09T07:36:54.879Z,28.99
2023-12-09T07:37:54.881Z,28.92
2023-12-09T07:38:54.873Z,28.94
2023-12-09T07:39:54.880Z,28.97
2023-12-09T07:40:54.876Z,28.96
2023-12-09T07:41:54.881Z,29.00
2023-12-09T07:42:54.874Z,28.94
2023-12-09T07:43:54.884Z,28.93
2023-12-09T07:44:54.938Z,28.92
2023-12-09T07:45:54.881Z,28.92
2023-12-09T07:46:54.905Z,28.93
2023-12-09T07:47:55.018Z,28.93
2023-12-09T07:48:54.976Z,28.93
2023-12-09T07:49:54.899Z,28.96
2023-12-09T07:50:55.081Z,28.92
2023-12-09T07:51:54.891Z,28.98
2023-12-09T07:52:54.910Z,28.92
2023-12-09T07:53:54.983Z,28.92
2023-12-09T07:54:54.899Z,28.87
2023-12-09T07:55:54.905Z,28.89
2023-12-09T07:56:55.020Z,28.90
2023-12-09T07:57:54.897Z,28.90
2023-12-09T07:58:54.912Z,28.91
2023-12-09T07:59:54.977Z,28.90
2023-12-09T08:00:55.051Z,28.88
2023-12-09T08:01:54.910Z,28.89
2023-12-09T08:02:54.977Z,28.81
2023-12-09T08:03:54.989Z,28.89
2023-12-09T08:04:54.935Z,28.88
2023-12-09T08:05:55.018Z,28.84
2023-12-09T08:06:54.914Z,28.83
2023-12-09T08:07:54.915Z,28.83
2023-12-09T08:08:54.935Z,28.83
2023-12-09T08:09:54.927Z,28.77
2023-12-09T08:10:54.915Z,28.76
2023-12-09T08:11:54.914Z,28.81
2023-12-09T08:12:54.913Z,28.74
2023-12-09T08:13:54.922Z,28.77
2023-12-09T08:14:54.948Z,28.76
2023-12-09T08:15:54.935Z,28.76
2023-12-09T08:16:54.922Z,28.73
2023-12-09T08:17:54.930Z,28.76
2023-12-09T08:18:55.072Z,28.72
2023-12-09T08:19:54.976Z,28.75
2023-12-09T08:20:54.926Z,28.73
2023-12-09T08:21:54.928Z,28.69
2023-12-09T08:22:54.934Z,28.75
2023-12-09T08:23:54.950Z,28.69
2023-12-09T08:24:54.937Z,28.65
2023-12-09T08:25:54.941Z,28.69
2023-12-09T08:26:55.542Z,28.72
2023-12-09T08:27:54.938Z,28.67
2023-12-09T08:28:55.478Z,28.69
2023-12-09T08:29:54.955Z,28.67
2023-12-09T08:30:54.958Z,28.64
2023-12-09T08:31:54.995Z,28.67
2023-12-09T08:32:55.067Z,28.67
2023-12-09T08:33:55.187Z,28.69
2023-12-09T08:35:03.149Z,28.72
2023-12-09T08:35:56.200Z,28.68
2023-12-09T08:36:55.125Z,28.65
2023-12-09T08:37:55.135Z,28.61
2023-12-09T08:38:55.135Z,28.71
2023-12-09T08:39:55.135Z,28.63
2023-12-09T08:40:55.130Z,28.67
2023-12-09T08:41:55.130Z,28.65
2023-12-09T08:42:55.142Z,28.68
2023-12-09T08:43:55.145Z,28.58
2023-12-09T08:44:55.139Z,28.55
2023-12-09T08:45:55.146Z,28.55
2023-12-09T08:46:55.153Z,28.56
2023-12-09T08:47:55.190Z,28.59
2023-12-09T08:48:55.316Z,28.52
2023-12-09T08:49:55.178Z,28.51
2023-12-09T08:50:55.141Z,28.56
2023-12-09T08:51:55.151Z,28.52
2023-12-09T08:52:55.473Z,28.52
2023-12-09T08:53:55.208Z,28.50
2023-12-09T08:54:59.848Z,28.51
2023-12-09T08:55:56.240Z,28.51
2023-12-09T08:56:55.301Z,28.52
2023-12-09T08:57:55.297Z,28.55
2023-12-09T08:58:55.252Z,28.51
2023-12-09T08:59:55.247Z,28.51
2023-12-09T09:00:55.462Z,28.51
2023-12-09T09:01:55.251Z,28.59
2023-12-09T09:02:55.253Z,28.54
2023-12-09T09:03:55.350Z,28.51
2023-12-09T09:04:55.311Z,28.58
2023-12-09T09:05:55.301Z,28.49
2023-12-09T09:06:55.274Z,28.58
2023-12-09T09:07:55.266Z,28.52
2023-12-09T09:08:55.265Z,28.52
2023-12-09T09:09:55.272Z,28.51
2023-12-09T09:10:55.270Z,28.52
2023-12-09T09:11:55.286Z,28.50
2023-12-09T09:12:55.399Z,28.48
2023-12-09T09:13:55.347Z,28.44
2023-12-09T09:14:55.399Z,28.48
2023-12-09T09:15:55.516Z,28.47
2023-12-09T09:16:55.449Z,28.49
2023-12-09T09:17:55.502Z,28.44
2023-12-09T09:18:55.612Z,28.46
2023-12-09T09:19:55.570Z,28.40
2023-12-09T09:20:55.601Z,28.39
2023-12-09T09:21:55.584Z,28.39
2023-12-09T09:22:55.598Z,28.38
2023-12-09T09:23:55.629Z,28.36
2023-12-09T09:24:55.650Z,28.34
2023-12-09T09:25:55.685Z,28.26
2023-12-09T09:26:55.690Z,28.27
2023-12-09T09:27:55.735Z,28.28
2023-12-09T09:28:55.732Z,28.12
2023-12-09T09:29:55.745Z,27.82
2023-12-09T09:30:55.804Z,27.58
2023-12-09T09:31:55.855Z,27.30
2023-12-09T09:32:55.989Z,26.86
2023-12-09T09:33:56.066Z,26.78
2023-12-09T09:34:56.090Z,26.84
2023-12-09T09:35:55.986Z,26.83
2023-12-09T09:36:55.986Z,26.91
2023-12-09T09:37:56.005Z,27.00
2023-12-09T09:38:56.040Z,27.02
2023-12-09T09:39:56.074Z,27.05
2023-12-09T09:40:56.122Z,27.02
2023-12-09T09:41:56.173Z,27.12
2023-12-09T09:42:56.225Z,27.10
2023-12-09T09:43:56.280Z,27.10
2023-12-09T09:44:56.428Z,27.08
2023-12-09T09:45:56.413Z,27.07
2023-12-09T09:46:56.433Z,27.19
2023-12-09T09:47:56.699Z,27.24
2023-12-09T09:48:56.713Z,27.25
2023-12-09T09:49:56.658Z,27.29
2023-12-09T09:50:56.670Z,27.32
2023-12-09T09:51:56.717Z,27.30
2023-12-09T09:52:56.782Z,27.38
2023-12-09T09:53:56.854Z,27.41
2023-12-09T09:54:56.908Z,27.38
2023-12-09T09:55:56.965Z,27.39
2023-12-09T09:56:57.063Z,27.45
2023-12-09T09:57:57.087Z,27.39
2023-12-09T09:58:57.145Z,27.40
2023-12-09T09:59:57.191Z,27.42
2023-12-09T10:00:57.449Z,27.43
2023-12-09T10:01:57.297Z,27.51
2023-12-09T10:02:59.524Z,27.48
2023-12-09T10:03:57.451Z,27.52
2023-12-09T10:04:57.366Z,27.58
2023-12-09T10:05:57.406Z,27.58
2023-12-09T10:06:57.454Z,27.48
2023-12-09T10:07:57.360Z,27.59
2023-12-09T10:08:57.379Z,27.59
2023-12-09T10:09:57.373Z,27.59
2023-12-09T10:10:57.365Z,27.60
2023-12-09T10:11:57.380Z,27.60
2023-12-09T10:12:57.376Z,27.63
2023-12-09T10:13:57.379Z,27.64
2023-12-09T10:14:57.443Z,27.71
2023-12-09T10:15:57.501Z,27.76
2023-12-09T10:16:57.383Z,27.69
2023-12-09T10:17:57.644Z,27.72
2023-12-09T10:18:57.463Z,27.73
2023-12-09T10:19:57.473Z,27.77
2023-12-09T10:20:57.431Z,27.79
2023-12-09T10:21:57.383Z,27.77
2023-12-09T10:22:57.383Z,27.87
2023-12-09T10:23:57.509Z,27.82
2023-12-09T10:24:57.412Z,27.90
2023-12-09T10:25:57.382Z,27.90
2023-12-09T10:26:57.408Z,27.89
2023-12-09T10:27:57.394Z,27.90
2023-12-09T10:28:57.386Z,27.85
2023-12-09T10:29:57.435Z,27.93
2023-12-09T10:30:57.393Z,27.93
2023-12-09T10:31:57.403Z,27.97
2023-12-09T10:32:57.525Z,27.91
2023-12-09T10:33:57.476Z,27.93
2023-12-09T10:34:58.557Z,27.90
2023-12-09T10:35:57.424Z,27.95
2023-12-09T10:36:57.404Z,27.93
2023-12-09T10:37:57.400Z,27.92
2023-12-09T10:38:57.446Z,27.88
2023-12-09T10:39:57.415Z,27.89
2023-12-09T10:40:57.445Z,27.87
2023-12-09T10:41:57.571Z,27.88
2023-12-09T10:42:57.546Z,27.86
2023-12-09T10:43:57.649Z,27.89
2023-12-09T10:44:57.631Z,27.91
2023-12-09T10:45:57.668Z,27.88
2023-12-09T10:46:57.696Z,27.86
2023-12-09T10:47:57.855Z,27.89
2023-12-09T10:48:57.924Z,27.92
2023-12-09T10:49:57.823Z,27.98
2023-12-09T10:50:57.874Z,27.92
2023-12-09T10:51:57.858Z,27.92
2023-12-09T10:52:57.892Z,27.93
2023-12-09T10:53:57.993Z,27.97
2023-12-09T10:54:58.043Z,27.92
2023-12-09T10:55:58.100Z,27.94
2023-12-09T10:56:58.099Z,27.96
2023-12-09T10:57:58.129Z,27.94
2023-12-09T10:58:58.138Z,27.90
2023-12-09T10:59:58.180Z,27.90
2023-12-09T11:00:58.233Z,27.95
2023-12-09T11:01:58.193Z,27.90
2023-12-09T11:02:58.229Z,27.89
2023-12-09T11:03:58.234Z,27.91
2023-12-09T11:04:58.308Z,27.91
2023-12-09T11:05:58.303Z,27.84
2023-12-09T11:06:58.305Z,27.85
2023-12-09T11:07:58.349Z,27.89
2023-12-09T11:08:58.464Z,27.91
2023-12-09T11:09:58.433Z,27.93
2023-12-09T11:10:58.548Z,27.95
2023-12-09T11:11:58.587Z,27.95
2023-12-09T11:12:58.563Z,27.92
2023-12-09T11:13:58.573Z,27.93
2023-12-09T11:14:58.626Z,27.96
2023-12-09T11:15:58.636Z,28.00
2023-12-09T11:16:58.656Z,28.00
2023-12-09T11:18:01.079Z,28.04
2023-12-09T11:18:58.847Z,28.01
2023-12-09T11:19:58.865Z,28.02
2023-12-09T11:20:58.692Z,28.03
2023-12-09T11:21:58.654Z,28.09
2023-12-09T11:22:58.642Z,28.05
2023-12-09T11:23:58.706Z,28.09
2023-12-09T11:24:58.655Z,28.08
2023-12-09T11:25:58.670Z,28.03
2023-12-09T11:26:58.686Z,28.02
2023-12-09T11:27:58.660Z,28.05
2023-12-09T11:28:58.656Z,28.05
2023-12-09T11:30:00.155Z,28.02
2023-12-09T11:30:58.892Z,28.06
2023-12-09T11:31:58.898Z,28.06
2023-12-09T11:32:59.056Z,28.08
2023-12-09T11:33:59.039Z,28.09
2023-12-09T11:34:58.927Z,28.09
2023-12-09T11:35:58.981Z,28.07
2023-12-09T11:36:58.949Z,28.07
2023-12-09T11:37:58.954Z,28.12
2023-12-09T11:38:59.000Z,28.11
2023-12-09T11:39:58.992Z,28.09
2023-12-09T11:40:58.986Z,28.09
2023-12-09T11:41:59.034Z,28.13
2023-12-09T11:42:59.060Z,28.13
2023-12-09T11:43:59.062Z,28.11
2023-12-09T11:44:59.089Z,28.13
2023-12-09T11:45:59.123Z,28.15
2023-12-09T11:46:59.136Z,28.08
2023-12-09T11:47:59.267Z,28.15
2023-12-09T11:48:59.266Z,28.14
2023-12-09T11:49:59.204Z,28.14
2023-12-09T11:50:59.309Z,28.08
2023-12-09T11:51:59.223Z,28.13
2023-12-09T11:52:59.288Z,28.15
2023-12-09T11:53:59.270Z,28.19
2023-12-09T11:54:59.265Z,28.23
2023-12-09T11:55:59.285Z,28.17
2023-12-09T11:56:59.342Z,28.16
2023-12-09T11:57:59.287Z,28.17
2023-12-09T11:58:59.302Z,28.18
2023-12-09T11:59:59.318Z,28.22
2023-12-09T12:00:59.392Z,28.20
2023-12-09T12:01:59.329Z,28.21
2023-12-09T12:02:59.353Z,28.21
2023-12-09T12:03:59.427Z,28.22
2023-12-09T12:04:59.367Z,28.21
2023-12-09T12:05:59.444Z,28.25
2023-12-09T12:06:59.390Z,28.18
2023-12-09T12:07:59.387Z,28.25
2023-12-09T12:08:59.435Z,28.25
2023-12-09T12:09:59.402Z,28.23
2023-12-09T12:10:59.438Z,28.22
2023-12-09T12:11:59.503Z,28.23
2023-12-09T12:12:59.468Z,28.25
2023-12-09T12:13:59.481Z,28.26
2023-12-09T12:14:59.521Z,28.23
2023-12-09T12:15:59.524Z,28.23
2023-12-09T12:16:59.521Z,28.20
2023-12-09T12:17:59.643Z,28.24
2023-12-09T12:18:59.634Z,28.29
2023-12-09T12:19:59.557Z,28.23
2023-12-09T12:20:59.622Z,28.27
2023-12-09T12:21:59.586Z,28.23
2023-12-09T12:22:59.604Z,28.26
2023-12-09T12:23:59.644Z,28.27
2023-12-09T12:24:59.639Z,28.29
2023-12-09T12:25:59.660Z,28.27
2023-12-09T12:26:59.700Z,28.27
2023-12-09T12:27:59.691Z,28.29
2023-12-09T12:28:59.703Z,28.28
2023-12-09T12:29:59.733Z,28.24
2023-12-09T12:30:59.739Z,28.27
2023-12-09T12:31:59.805Z,28.27
2023-12-09T12:32:59.957Z,28.21
2023-12-09T12:33:59.877Z,28.30
2023-12-09T12:34:59.830Z,28.30
2023-12-09T12:35:59.953Z,28.28
2023-12-09T12:36:59.822Z,28.30
2023-12-09T12:37:59.839Z,28.33
2023-12-09T12:38:59.877Z,28.31
2023-12-09T12:39:59.874Z,28.30
2023-12-09T12:40:59.906Z,28.25
2023-12-09T12:41:59.973Z,28.27
2023-12-09T12:42:59.932Z,28.34
2023-12-09T12:43:59.958Z,28.29
2023-12-09T12:45:00.072Z,28.31
2023-12-09T12:46:00.120Z,28.28
2023-12-09T12:47:00.012Z,28.32
2023-12-09T12:48:00.324Z,28.34
2023-12-09T12:49:00.182Z,28.32
2023-12-09T12:50:00.261Z,28.28
2023-12-09T12:51:00.166Z,28.30
2023-12-09T12:52:00.180Z,28.32
2023-12-09T12:53:00.198Z,28.27